Time;durP1;ratioP1;P1;durP2;ratioP2;P2;SDS_P1;SDS_P2;PMS_P1;PMS_P2;Temp;Humidity;BMP_temperature;BMP_pressure;BME280_temperature;BME280_humidity;BME280_pressure;Samples;Min_cycle;Max_cycle;Signal;HPM_P1;HPM_P2
2023/08/24 00:01:09;;;;;;;7.43;6.78;;;14.70;99.90;;;;;;5052157;28;20687;-39
2023/08/24 00:03:34;;;;;;;8.45;7.72;;;14.70;99.90;;;;;;5051535;28;20476;-39
2023/08/24 00:06:00;;;;;;;9.57;6.72;;;14.70;99.90;;;;;;5052967;28;20040;-42
2023/08/24 00:08:26;;;;;;;7.57;6.80;;;14.70;99.90;;;;;;5054680;28;20044;-38
2023/08/24 00:10:52;;;;;;;6.80;6.20;;;14.60;99.90;;;;;;5056205;28;20351;-41
2023/08/24 00:13:18;;;;;;;9.15;6.32;;;14.60;99.90;;;;;;5056060;28;20041;-42
2023/08/24 00:15:45;;;;;;;7.18;6.40;;;14.60;99.90;;;;;;5051918;28;20482;-39
2023/08/24 00:18:11;;;;;;;6.30;5.80;;;14.60;99.90;;;;;;5053117;28;20064;-39
2023/08/24 00:20:37;;;;;;;6.13;5.53;;;14.70;99.90;;;;;;5053643;28;20085;-42
2023/08/24 00:23:03;;;;;;;6.80;6.20;;;14.70;99.90;;;;;;5052660;28;20045;-43
2023/08/24 00:25:29;;;;;;;6.60;4.95;;;14.60;99.90;;;;;;5057818;28;20491;-44
2023/08/24 00:27:55;;;;;;;4.38;3.97;;;14.50;99.90;;;;;;5053659;28;20046;-39
2023/08/24 00:30:21;;;;;;;4.68;3.75;;;14.40;99.90;;;;;;5057865;28;20056;-39
2023/08/24 00:32:47;;;;;;;4.75;3.90;;;14.30;99.90;;;;;;5054541;28;20040;-39
2023/08/24 00:35:12;;;;;;;4.40;4.00;;;14.20;99.90;;;;;;5058318;28;20048;-39
2023/08/24 00:37:38;;;;;;;4.22;3.72;;;14.20;99.90;;;;;;5054679;28;20045;-40
2023/08/24 00:40:09;;;;;;;4.60;4.20;;;14.30;99.90;;;;;;5054894;28;20053;-39
2023/08/24 00:42:39;;;;;;;7.30;5.43;;;14.30;99.90;;;;;;5052757;28;20867;-41
2023/08/24 00:45:06;;;;;;;7.57;5.75;;;14.30;99.90;;;;;;5055549;28;20462;-41
2023/08/24 00:47:32;;;;;;;7.28;5.68;;;14.40;99.90;;;;;;5054831;28;20894;-37
2023/08/24 00:49:59;;;;;;;7.47;6.57;;;14.50;99.90;;;;;;5053514;28;20501;-39
2023/08/24 00:52:28;;;;;;;7.25;6.57;;;14.60;99.90;;;;;;5051017;28;20051;-38
2023/08/24 00:54:54;;;;;;;9.68;7.40;;;14.60;99.90;;;;;;5055616;28;20113;-40
2023/08/24 00:57:21;;;;;;;8.35;7.53;;;14.60;99.90;;;;;;5054214;28;20052;-42
2023/08/24 00:59:47;;;;;;;10.43;9.30;;;14.60;99.90;;;;;;5054651;28;20099;-40
2023/08/24 01:02:12;;;;;;;12.65;8.45;;;14.80;99.90;;;;;;5052262;28;20625;-38
2023/08/24 01:04:42;;;;;;;8.82;7.97;;;14.80;99.90;;;;;;5055028;28;20050;-39
2023/08/24 01:07:09;;;;;;;8.10;7.30;;;14.80;99.90;;;;;;5052277;28;20570;-37
2023/08/24 01:09:35;;;;;;;9.20;8.00;;;14.80;99.90;;;;;;5054510;28;20040;-39
2023/08/24 01:12:13;;;;;;;7.05;5.82;;;14.90;99.90;;;;;;5053530;28;20041;-40
2023/08/24 01:15:06;;;;;;;8.02;7.25;;;14.80;99.90;;;;;;5050686;28;20487;-40
2023/08/24 01:17:33;;;;;;;16.30;9.68;;;14.90;99.90;;;;;;5053017;28;20040;-42
2023/08/24 01:20:03;;;;;;;13.57;10.45;;;14.80;99.90;;;;;;5053463;28;20039;-41
2023/08/24 01:23:17;;;;;;;15.00;9.98;;;14.90;99.90;;;;;;5052617;28;20119;-39
2023/08/24 01:25:53;;;;;;;15.68;9.88;;;14.90;99.90;;;;;;5049735;28;20060;-41
2023/08/24 01:28:21;;;;;;;9.15;8.25;;;14.90;99.90;;;;;;5032988;28;20160;-42
2023/08/24 01:30:46;;;;;;;10.60;9.45;;;14.80;99.90;;;;;;5035692;28;20605;-37
2023/08/24 01:33:14;;;;;;;12.52;9.10;;;14.80;99.90;;;;;;5050520;28;20056;-38
2023/08/24 01:35:41;;;;;;;12.95;10.38;;;14.90;99.90;;;;;;5052047;28;20060;-40
2023/08/24 01:38:07;;;;;;;10.80;9.70;;;14.90;99.90;;;;;;5048851;28;20060;-40
2023/08/24 01:40:44;;;;;;;14.82;9.95;;;14.90;99.90;;;;;;5051978;28;20047;-40
2023/08/24 01:43:12;;;;;;;11.88;10.68;;;15.00;99.90;;;;;;5049867;28;20064;-41
2023/08/24 01:45:41;;;;;;;12.88;11.02;;;15.10;99.90;;;;;;5051486;28;20044;-38
2023/08/24 01:48:09;;;;;;;17.27;11.85;;;15.10;99.90;;;;;;5017408;28;20117;-40
2023/08/24 01:50:36;;;;;;;17.65;12.07;;;15.20;99.90;;;;;;5050198;28;20050;-39
2023/08/24 01:53:03;;;;;;;12.90;10.77;;;15.20;99.90;;;;;;5050094;28;20072;-43
2023/08/24 01:55:29;;;;;;;11.73;10.60;;;15.30;99.90;;;;;;5033467;28;20482;-40
2023/08/24 01:57:56;;;;;;;12.65;10.20;;;15.30;99.90;;;;;;5050960;28;20049;-38
2023/08/24 02:00:22;;;;;;;14.85;11.07;;;15.30;99.90;;;;;;5045914;28;20044;-40
2023/08/24 02:02:47;;;;;;;13.10;11.43;;;15.30;99.90;;;;;;5049287;28;20032;-42
2023/08/24 02:05:13;;;;;;;11.38;10.00;;;15.30;99.90;;;;;;5053276;28;20789;-39
2023/08/24 02:07:40;;;;;;;17.88;11.18;;;15.30;99.90;;;;;;5053704;28;20147;-43
2023/08/24 02:10:06;;;;;;;13.05;11.40;;;15.30;99.90;;;;;;5064853;28;20056;-39
2023/08/24 02:12:32;;;;;;;13.65;11.60;;;15.20;99.90;;;;;;5074752;28;20047;-42
2023/08/24 02:14:58;;;;;;;14.40;12.35;;;15.20;99.90;;;;;;5060270;28;20552;-39
2023/08/24 02:17:24;;;;;;;17.50;11.90;;;15.20;99.90;;;;;;5055231;28;20141;-40
2023/08/24 02:19:50;;;;;;;15.77;11.93;;;15.10;99.90;;;;;;5054022;28;20437;-41
2023/08/24 02:22:16;;;;;;;17.92;10.90;;;15.10;99.90;;;;;;5066446;28;20182;-41
2023/08/24 02:24:41;;;;;;;12.52;11.20;;;15.00;99.90;;;;;;5075059;28;20051;-39
2023/08/24 02:27:07;;;;;;;14.82;11.35;;;15.00;99.90;;;;;;5075310;28;20059;-39
2023/08/24 02:29:33;;;;;;;14.57;12.07;;;15.00;99.90;;;;;;5074681;28;20213;-40
2023/08/24 02:31:58;;;;;;;14.57;11.52;;;15.00;99.90;;;;;;5074176;28;20050;-42
2023/08/24 02:34:24;;;;;;;17.52;11.60;;;15.10;99.90;;;;;;5076007;28;20482;-42
2023/08/24 02:36:50;;;;;;;14.55;9.95;;;15.10;99.90;;;;;;5074986;28;20044;-39
2023/08/24 02:39:16;;;;;;;12.45;10.40;;;15.00;99.90;;;;;;5074379;28;20557;-41
2023/08/24 02:41:41;;;;;;;13.10;10.25;;;15.10;99.90;;;;;;5074423;28;20052;-39
2023/08/24 02:44:07;;;;;;;13.23;11.20;;;15.00;99.90;;;;;;5074936;28;20079;-38
2023/08/24 02:46:33;;;;;;;17.73;12.18;;;15.00;99.90;;;;;;5072646;28;20052;-42
2023/08/24 02:48:58;;;;;;;16.92;11.32;;;15.00;99.90;;;;;;5054475;28;20113;-42
2023/08/24 02:51:24;;;;;;;14.02;12.40;;;15.00;99.90;;;;;;5053345;28;20454;-42
2023/08/24 02:53:50;;;;;;;15.48;10.98;;;15.00;99.90;;;;;;5053197;28;20432;-43
2023/08/24 02:56:16;;;;;;;12.98;9.85;;;15.00;99.90;;;;;;5068969;28;20051;-38
2023/08/24 02:58:41;;;;;;;14.93;10.23;;;15.10;99.90;;;;;;5073884;28;20085;-41
2023/08/24 03:01:07;;;;;;;17.02;11.18;;;15.00;99.90;;;;;;5073427;28;20130;-41
2023/08/24 03:03:37;;;;;;;14.05;10.77;;;15.10;99.90;;;;;;5072829;28;20126;-41
2023/08/24 03:06:04;;;;;;;13.73;11.00;;;15.10;99.90;;;;;;5074236;28;20052;-41
2023/08/24 03:08:31;;;;;;;15.10;9.70;;;15.10;99.90;;;;;;5072573;28;20237;-41
2023/08/24 03:11:00;;;;;;;14.88;10.02;;;15.10;99.90;;;;;;5072165;28;20048;-39
2023/08/24 03:13:27;;;;;;;13.23;10.32;;;15.10;99.90;;;;;;5073290;28;20420;-37
2023/08/24 03:15:53;;;;;;;12.55;9.65;;;15.10;99.90;;;;;;5053107;28;20054;-38
2023/08/24 03:18:19;;;;;;;12.48;11.18;;;15.00;99.90;;;;;;5051336;28;20048;-41
2023/08/24 03:20:46;;;;;;;14.43;10.25;;;15.00;99.90;;;;;;5052682;28;20578;-42
2023/08/24 03:23:12;;;;;;;14.27;10.70;;;15.00;99.90;;;;;;5054963;28;20616;-39
2023/08/24 03:25:39;;;;;;;13.65;10.25;;;14.90;99.90;;;;;;5056982;28;20241;-40
2023/08/24 03:28:06;;;;;;;16.60;11.18;;;14.90;99.90;;;;;;5074074;28;20044;-40
2023/08/24 03:30:33;;;;;;;14.30;10.68;;;14.90;99.90;;;;;;5072618;28;20080;-43
2023/08/24 03:32:59;;;;;;;13.43;10.50;;;14.80;99.90;;;;;;5074309;28;20086;-40
2023/08/24 03:35:25;;;;;;;18.77;11.75;;;14.80;99.90;;;;;;5074335;28;20144;-40
2023/08/24 03:37:51;;;;;;;12.75;10.25;;;14.70;99.90;;;;;;5073216;28;20044;-42
2023/08/24 03:40:17;;;;;;;13.60;11.63;;;14.70;99.90;;;;;;5073653;28;20106;-41
2023/08/24 03:42:42;;;;;;;9.95;9.05;;;14.70;99.90;;;;;;5075507;28;20044;-39
2023/08/24 03:45:08;;;;;;;8.48;7.78;;;14.60;99.90;;;;;;5078076;28;20573;-38
2023/08/24 03:47:34;;;;;;;10.55;8.55;;;14.50;99.90;;;;;;5077986;28;20127;-41
2023/08/24 03:50:00;;;;;;;10.82;8.88;;;14.50;99.90;;;;;;5078232;28;20040;-39
2023/08/24 03:52:25;;;;;;;11.15;10.02;;;14.40;99.90;;;;;;5075547;28;20075;-40
2023/08/24 03:54:51;;;;;;;14.80;10.27;;;14.40;99.90;;;;;;5073864;28;20138;-39
2023/08/24 03:57:21;;;;;;;12.82;10.45;;;14.40;99.90;;;;;;5057456;28;20495;-43
2023/08/24 03:59:47;;;;;;;11.77;10.43;;;14.50;99.90;;;;;;5075090;28;20498;-39
2023/08/24 04:02:12;;;;;;;14.82;10.48;;;14.50;99.90;;;;;;5070814;28;20050;-40
2023/08/24 04:04:38;;;;;;;10.88;9.57;;;14.50;99.90;;;;;;5076378;28;20055;-41
2023/08/24 04:07:03;;;;;;;11.80;10.30;;;14.50;99.90;;;;;;5064816;28;20060;-42
2023/08/24 04:09:29;;;;;;;11.93;10.65;;;14.50;99.90;;;;;;5056884;28;20056;-40
2023/08/24 04:11:55;;;;;;;9.88;8.95;;;14.50;99.90;;;;;;5056798;28;20566;-40
2023/08/24 04:14:20;;;;;;;9.88;8.88;;;14.50;99.90;;;;;;5052495;28;20057;-42
2023/08/24 04:16:47;;;;;;;12.57;9.05;;;14.50;99.90;;;;;;5057494;28;20048;-37
2023/08/24 04:19:13;;;;;;;14.23;9.80;;;14.50;99.90;;;;;;5050809;28;20056;-38
2023/08/24 04:21:38;;;;;;;11.23;9.80;;;14.50;99.90;;;;;;5075823;28;20055;-39
2023/08/24 04:24:04;;;;;;;11.95;9.73;;;14.50;99.90;;;;;;5052922;28;20049;-40
2023/08/24 04:26:30;;;;;;;12.32;10.35;;;14.50;99.90;;;;;;5057336;28;20403;-39
2023/08/24 04:28:56;;;;;;;9.82;8.70;;;14.50;99.90;;;;;;5056133;28;20054;-38
2023/08/24 04:31:22;;;;;;;12.80;10.25;;;14.50;99.90;;;;;;5056726;28;20056;-39
2023/08/24 04:33:47;;;;;;;10.75;9.18;;;14.50;99.90;;;;;;5072985;28;20052;-39
2023/08/24 04:36:13;;;;;;;11.07;10.00;;;14.50;99.90;;;;;;5072620;28;20048;-40
2023/08/24 04:38:39;;;;;;;12.63;10.90;;;14.50;99.90;;;;;;5076906;28;20196;-38
2023/08/24 04:41:07;;;;;;;12.13;10.63;;;14.50;99.90;;;;;;5076298;28;20085;-38
2023/08/24 04:43:33;;;;;;;14.18;10.65;;;14.50;99.90;;;;;;5077069;28;20289;-39
2023/08/24 04:45:59;;;;;;;15.75;11.65;;;14.50;99.90;;;;;;5076661;28;20096;-41
2023/08/24 04:48:25;;;;;;;12.00;10.77;;;14.60;99.90;;;;;;5076030;28;20079;-42
2023/08/24 04:50:53;;;;;;;17.40;11.05;;;14.70;99.90;;;;;;5076001;28;20048;-41
2023/08/24 04:53:20;;;;;;;12.57;10.70;;;14.70;99.90;;;;;;5057309;28;20052;-42
2023/08/24 04:55:46;;;;;;;14.07;11.13;;;14.80;99.90;;;;;;5056409;28;20044;-41
2023/08/24 04:58:15;;;;;;;13.98;10.48;;;14.90;99.90;;;;;;5054490;28;20052;-41
2023/08/24 05:00:41;;;;;;;11.90;9.15;;;14.90;99.90;;;;;;5054227;28;20048;-42
2023/08/24 05:03:07;;;;;;;12.02;10.75;;;15.00;99.90;;;;;;5054350;28;20372;-40
2023/08/24 05:05:34;;;;;;;13.20;10.73;;;15.10;99.90;;;;;;5056187;28;20059;-41
2023/08/24 05:08:01;;;;;;;12.25;10.00;;;15.10;99.90;;;;;;5055965;28;20139;-42
2023/08/24 05:10:31;;;;;;;13.95;9.80;;;15.10;99.90;;;;;;5055772;28;20202;-38
2023/08/24 05:12:57;;;;;;;12.10;10.90;;;15.20;99.90;;;;;;5054900;28;20061;-38
2023/08/24 05:15:22;;;;;;;17.92;11.57;;;15.20;99.90;;;;;;5051466;28;20548;-38
2023/08/24 05:17:48;;;;;;;10.70;9.50;;;15.30;99.90;;;;;;5058923;28;20048;-42
2023/08/24 05:20:14;;;;;;;12.90;11.68;;;15.30;99.90;;;;;;5059036;28;20126;-40
2023/08/24 05:22:40;;;;;;;13.15;10.50;;;15.40;99.90;;;;;;5063211;28;20495;-38
2023/08/24 05:25:06;;;;;;;14.35;10.57;;;15.40;99.90;;;;;;5055497;28;20550;-41
2023/08/24 05:27:32;;;;;;;12.27;10.82;;;15.60;99.90;;;;;;5060740;28;20599;-42
2023/08/24 05:29:58;;;;;;;11.43;10.20;;;15.80;99.90;;;;;;5076300;28;20043;-40
2023/08/24 05:32:24;;;;;;;11.32;9.57;;;16.10;99.90;;;;;;5074883;28;20105;-42
2023/08/24 05:34:50;;;;;;;11.70;10.23;;;16.60;99.90;;;;;;5075970;28;20526;-40
2023/08/24 05:37:16;;;;;;;11.48;9.15;;;17.50;99.90;;;;;;5076180;28;20533;-45
2023/08/24 05:39:42;;;;;;;9.80;8.80;;;18.60;99.90;;;;;;5076094;28;20130;-41
2023/08/24 05:42:08;;;;;;;9.05;7.50;;;19.90;99.90;;;;;;5068371;28;20506;-40
2023/08/24 05:44:34;;;;;;;9.98;6.88;;;21.10;99.90;;;;;;5054464;28;20076;-42
2023/08/24 05:47:00;;;;;;;11.13;7.60;;;22.20;99.90;;;;;;5056040;28;20503;-40
2023/08/24 05:49:26;;;;;;;7.53;6.75;;;23.10;99.90;;;;;;5055289;28;20067;-39
2023/08/24 05:51:52;;;;;;;9.73;6.68;;;23.70;99.90;;;;;;5071050;28;20488;-41
2023/08/24 05:54:18;;;;;;;9.20;5.63;;;24.40;99.90;;;;;;5064686;28;20044;-40
2023/08/24 05:56:47;;;;;;;10.50;6.13;;;25.00;99.90;;;;;;5061709;28;20687;-42
2023/08/24 05:59:14;;;;;;;8.13;5.72;;;25.80;99.90;;;;;;5062502;28;20048;-39
2023/08/24 06:01:41;;;;;;;6.97;4.85;;;26.20;99.90;;;;;;5074591;28;20135;-43
2023/08/24 06:04:10;;;;;;;7.78;5.25;;;26.70;99.90;;;;;;5075577;28;20151;-43
2023/08/24 06:06:36;;;;;;;10.15;4.88;;;27.20;99.90;;;;;;5048988;28;20052;-41
2023/08/24 06:09:04;;;;;;;7.95;5.15;;;27.70;99.90;;;;;;5073214;28;20051;-44
2023/08/24 06:11:30;;;;;;;6.53;4.43;;;28.40;99.90;;;;;;5075345;28;20506;-39
2023/08/24 06:13:56;;;;;;;6.35;4.47;;;28.90;98.20;;;;;;5073733;28;20047;-43
2023/08/24 06:16:21;;;;;;;8.50;4.47;;;29.10;97.80;;;;;;5052128;28;20087;-42
2023/08/24 06:18:49;;;;;;;5.35;4.38;;;29.10;97.00;;;;;;5046545;28;20057;-45
2023/08/24 06:21:15;;;;;;;6.35;4.20;;;29.50;96.40;;;;;;5054372;28;20860;-43
2023/08/24 06:23:41;;;;;;;8.57;4.68;;;29.30;94.60;;;;;;5050948;28;20045;-41
2023/08/24 06:26:06;;;;;;;8.70;4.32;;;29.70;95.30;;;;;;5055795;28;20231;-44
2023/08/24 06:28:32;;;;;;;6.22;4.55;;;30.30;95.00;;;;;;5054737;28;20087;-44
2023/08/24 06:31:00;;;;;;;8.80;4.53;;;30.00;92.80;;;;;;5053768;28;20092;-41
2023/08/24 06:33:33;;;;;;;9.20;5.40;;;29.70;93.70;;;;;;5055278;28;20088;-39
2023/08/24 06:35:59;;;;;;;;;;;28.60;94.40;;;;;;5074284;28;20486;-41
2023/08/24 06:38:25;;;;;;;6.18;4.93;;;27.30;94.80;;;;;;5074044;28;19931;-44
2023/08/24 06:40:51;;;;;;;8.02;4.28;;;26.30;96.60;;;;;;5074806;28;20178;-43
2023/08/24 06:43:17;;;;;;;7.25;4.75;;;25.40;97.60;;;;;;5075325;28;20079;-41
2023/08/24 06:45:44;;;;;;;6.38;4.28;;;25.20;98.50;;;;;;5075811;28;20126;-43
2023/08/24 06:48:10;;;;;;;6.35;3.97;;;25.60;98.50;;;;;;5074380;28;20085;-41
2023/08/24 06:50:36;;;;;;;6.70;4.00;;;25.60;97.50;;;;;;5074666;28;20076;-40
2023/08/24 06:53:05;;;;;;;7.65;4.28;;;25.60;98.50;;;;;;5058327;28;20542;-43
2023/08/24 06:55:31;;;;;;;9.15;4.25;;;26.20;98.50;;;;;;5075126;28;20061;-43
2023/08/24 06:57:57;;;;;;;8.98;4.13;;;27.00;98.20;;;;;;5056565;28;20388;-41
2023/08/24 07:00:23;;;;;;;6.50;3.95;;;27.70;97.30;;;;;;5073651;28;20127;-44
2023/08/24 07:02:49;;;;;;;7.70;4.10;;;28.00;96.60;;;;;;5073833;28;20055;-46
2023/08/24 07:05:18;;;;;;;9.10;4.22;;;28.20;96.30;;;;;;5074433;28;20044;-40
2023/08/24 07:07:45;;;;;;;4.75;4.00;;;28.20;96.60;;;;;;5072976;28;20040;-39
2023/08/24 07:10:11;;;;;;;6.95;4.35;;;27.80;96.50;;;;;;5073153;28;20054;-44
2023/08/24 07:12:40;;;;;;;8.02;4.00;;;27.00;96.90;;;;;;5073761;28;20625;-43
2023/08/24 07:15:07;;;;;;;6.93;4.60;;;26.40;97.70;;;;;;5056822;28;20040;-42
2023/08/24 07:17:32;;;;;;;9.30;4.70;;;26.20;98.70;;;;;;5053428;28;20513;-41
2023/08/24 07:19:58;;;;;;;6.63;4.93;;;26.00;99.10;;;;;;5052462;28;20055;-42
2023/08/24 07:22:26;;;;;;;6.45;5.07;;;25.80;99.20;;;;;;5052369;28;20048;-40
2023/08/24 07:24:53;;;;;;;7.82;5.50;;;25.50;99.50;;;;;;5053353;28;20117;-42
2023/08/24 07:27:19;;;;;;;6.90;6.03;;;25.30;99.90;;;;;;5052684;28;20576;-43
2023/08/24 07:29:45;;;;;;;7.57;5.90;;;25.00;99.90;;;;;;5053948;28;20044;-43
2023/08/24 07:32:10;;;;;;;11.07;6.25;;;24.60;99.90;;;;;;5052993;28;20055;-44
2023/08/24 07:34:36;;;;;;;9.77;7.18;;;24.40;99.90;;;;;;5054224;28;20891;-41
2023/08/24 07:37:02;;;;;;;11.40;6.72;;;24.30;99.90;;;;;;5052802;28;20407;-43
2023/08/24 07:39:27;;;;;;;7.95;6.00;;;24.20;99.90;;;;;;5052533;28;20457;-39
2023/08/24 07:41:53;;;;;;;8.30;7.07;;;24.40;99.90;;;;;;5052665;28;20041;-43
2023/08/24 07:44:19;;;;;;;11.07;6.85;;;24.50;99.90;;;;;;5053902;28;20037;-43
2023/08/24 07:46:45;;;;;;;10.85;6.63;;;24.50;99.90;;;;;;5036253;28;20056;-42
2023/08/24 07:49:10;;;;;;;9.15;6.32;;;24.30;99.90;;;;;;5053478;28;20079;-43
2023/08/24 07:51:36;;;;;;;12.20;7.22;;;24.40;99.90;;;;;;5052991;28;20055;-41
2023/08/24 07:54:04;;;;;;;9.00;7.80;;;24.40;99.90;;;;;;5063929;28;20047;-45
2023/08/24 07:56:30;;;;;;;9.98;6.25;;;24.40;99.90;;;;;;5072760;28;20048;-43
2023/08/24 07:58:55;;;;;;;8.70;6.47;;;24.60;99.90;;;;;;5073827;28;20120;-41
2023/08/24 08:01:21;;;;;;;9.65;6.90;;;24.60;99.90;;;;;;5073635;28;20512;-44
2023/08/24 08:03:47;;;;;;;8.77;6.45;;;24.50;99.90;;;;;;5073943;28;20040;-43
2023/08/24 08:06:13;;;;;;;10.05;6.50;;;24.60;99.90;;;;;;5073502;28;20158;-39
2023/08/24 08:08:39;;;;;;;9.32;6.38;;;24.50;99.90;;;;;;5062711;28;20055;-42
2023/08/24 08:11:05;;;;;;;8.38;6.32;;;24.40;99.90;;;;;;5070039;28;20413;-44
2023/08/24 08:13:31;;;;;;;10.90;6.65;;;24.40;99.90;;;;;;5075177;28;20455;-43
2023/08/24 08:16:07;;;;;;;13.02;7.18;;;24.30;99.90;;;;;;5052651;28;20056;-39
2023/08/24 08:18:34;;;;;;;10.93;6.40;;;24.10;99.90;;;;;;5051821;28;20126;-40
2023/08/24 08:20:59;;;;;;;11.27;6.80;;;24.10;99.90;;;;;;5069519;28;20660;-43
2023/08/24 08:23:25;;;;;;;11.18;6.10;;;24.10;99.90;;;;;;5065660;28;20132;-41
2023/08/24 08:25:51;;;;;;;8.43;6.40;;;24.10;99.90;;;;;;5073647;28;20040;-40
2023/08/24 08:28:20;;;;;;;8.70;6.78;;;23.90;99.90;;;;;;5073942;28;20151;-40
2023/08/24 08:30:47;;;;;;;10.23;7.18;;;23.90;99.90;;;;;;5075409;28;20056;-44
2023/08/24 08:33:13;;;;;;;7.50;6.70;;;23.70;99.90;;;;;;5077355;28;20051;-38
2023/08/24 08:35:39;;;;;;;11.10;6.65;;;23.50;99.90;;;;;;5061621;28;20092;-42
2023/08/24 08:38:08;;;;;;;9.70;7.15;;;23.60;99.90;;;;;;5074705;28;20044;-38
2023/08/24 08:40:37;;;;;;;9.18;6.35;;;23.50;99.90;;;;;;5075675;28;20129;-39
2023/08/24 08:43:02;;;;;;;10.32;6.78;;;23.60;99.90;;;;;;5077469;28;20097;-42
2023/08/24 08:45:28;;;;;;;8.77;6.57;;;23.60;99.90;;;;;;5077532;28;20071;-39
2023/08/24 08:47:59;;;;;;;10.90;7.75;;;23.70;99.90;;;;;;5076640;28;20229;-42
2023/08/24 08:50:25;;;;;;;8.02;7.05;;;23.70;99.90;;;;;;5075101;28;20489;-43
2023/08/24 08:52:51;;;;;;;14.32;7.95;;;23.80;99.90;;;;;;5075372;28;20146;-42
2023/08/24 08:55:18;;;;;;;10.45;7.65;;;23.80;99.90;;;;;;5067063;28;20044;-41
2023/08/24 08:57:45;;;;;;;11.68;7.25;;;24.00;99.90;;;;;;5076361;28;20055;-42
2023/08/24 09:00:14;;;;;;;12.48;7.35;;;24.00;99.90;;;;;;5075005;28;20052;-44
2023/08/24 09:02:43;;;;;;;8.25;7.45;;;24.10;99.90;;;;;;5076753;28;20049;-44
2023/08/24 09:05:10;;;;;;;9.80;8.02;;;23.90;99.90;;;;;;5056926;28;20508;-43
2023/08/24 09:07:39;;;;;;;12.15;8.18;;;23.90;99.90;;;;;;5055654;28;20040;-41
2023/08/24 09:10:06;;;;;;;8.88;7.43;;;23.80;99.90;;;;;;5046956;28;20070;-43
2023/08/24 09:12:35;;;;;;;13.70;8.88;;;23.80;99.90;;;;;;5043453;28;20419;-44
2023/08/24 09:15:06;;;;;;;11.05;7.75;;;23.70;99.90;;;;;;5054496;28;20036;-43
2023/08/24 09:17:32;;;;;;;13.63;8.13;;;23.70;99.90;;;;;;5055565;28;20086;-43
2023/08/24 09:20:00;;;;;;;12.77;7.75;;;23.60;99.90;;;;;;5064834;28;20529;-39
2023/08/24 09:22:25;;;;;;;10.70;7.63;;;23.60;99.90;;;;;;5053533;28;20044;-43
2023/08/24 09:24:51;;;;;;;12.18;8.25;;;23.50;99.90;;;;;;5052184;28;20608;-42
2023/08/24 09:27:26;;;;;;;11.80;8.25;;;23.50;99.90;;;;;;5057386;28;20040;-41
2023/08/24 09:29:52;;;;;;;10.80;8.35;;;23.40;99.90;;;;;;5044577;28;20044;-45
2023/08/24 09:32:23;;;;;;;9.57;8.63;;;23.30;99.90;;;;;;5054092;28;20044;-39
2023/08/24 09:34:50;;;;;;;10.40;8.77;;;23.20;99.90;;;;;;5044260;28;20082;-46
2023/08/24 09:37:16;;;;;;;12.02;8.45;;;23.20;99.90;;;;;;5045992;28;20074;-43
2023/08/24 09:39:42;;;;;;;10.38;8.35;;;23.20;99.90;;;;;;5038186;28;20045;-42
2023/08/24 09:42:08;;;;;;;12.57;8.68;;;23.20;99.90;;;;;;5042979;28;20071;-42
2023/08/24 09:44:33;;;;;;;10.98;9.40;;;23.10;99.90;;;;;;5047436;28;20040;-46
2023/08/24 09:46:59;;;;;;;12.32;9.45;;;23.00;99.90;;;;;;5074065;28;20048;-43
2023/08/24 09:49:27;;;;;;;12.73;9.68;;;23.00;99.90;;;;;;5055759;28;20044;-41
2023/08/24 09:51:59;;;;;;;12.98;10.75;;;22.90;99.90;;;;;;5066004;28;20056;-39
2023/08/24 09:54:31;;;;;;;14.98;10.05;;;22.80;99.90;;;;;;5053939;28;20045;-43
2023/08/24 09:56:59;;;;;;;15.13;10.82;;;22.70;99.90;;;;;;5054894;28;20055;-43
2023/08/24 09:59:27;;;;;;;14.02;11.02;;;22.70;99.90;;;;;;5069019;28;20055;-40
2023/08/24 10:01:56;;;;;;;14.18;10.88;;;22.60;99.90;;;;;;5061877;28;20047;-39
2023/08/24 10:04:24;;;;;;;14.07;9.73;;;22.60;99.90;;;;;;5065202;28;20044;-45
2023/08/24 10:07:04;;;;;;;16.23;11.07;;;22.50;99.90;;;;;;5057500;28;20469;-47
2023/08/24 10:09:44;;;;;;;12.68;10.15;;;22.50;99.90;;;;;;5070596;28;20488;-43
2023/08/24 10:12:12;;;;;;;16.63;10.65;;;22.40;99.90;;;;;;5047218;28;20044;-41
2023/08/24 10:14:49;;;;;;;14.27;10.45;;;22.30;99.90;;;;;;5040595;28;20037;-44
2023/08/24 10:17:16;;;;;;;15.07;11.02;;;22.30;99.90;;;;;;5035484;28;20221;-43
2023/08/24 10:19:43;;;;;;;12.77;10.45;;;22.20;99.90;;;;;;5043679;28;20044;-44
2023/08/24 10:22:09;;;;;;;13.02;11.65;;;22.10;99.90;;;;;;5040461;28;20091;-43
2023/08/24 10:24:36;;;;;;;15.48;11.23;;;22.00;99.90;;;;;;5046182;28;20048;-43
2023/08/24 10:27:03;;;;;;;15.75;11.35;;;21.90;99.90;;;;;;5040397;28;20051;-42
2023/08/24 10:29:29;;;;;;;17.13;12.15;;;21.90;99.90;;;;;;5033249;28;20140;-43
2023/08/24 10:31:56;;;;;;;13.40;11.43;;;21.80;99.90;;;;;;5041739;28;20083;-40
2023/08/24 10:34:22;;;;;;;15.23;11.70;;;21.70;99.90;;;;;;5041750;28;20677;-41
2023/08/24 10:36:51;;;;;;;12.52;11.13;;;21.70;99.90;;;;;;5064661;28;20093;-45
2023/08/24 10:39:18;;;;;;;17.67;13.65;;;21.70;99.90;;;;;;5058054;28;20298;-41
2023/08/24 10:41:52;;;;;;;19.58;12.98;;;21.70;99.90;;;;;;5043649;28;20056;-40
2023/08/24 10:44:35;;;;;;;15.43;13.80;;;21.70;99.90;;;;;;5069571;28;20056;-42
2023/08/24 10:47:20;;;;;;;17.63;13.85;;;21.60;99.90;;;;;;5053080;28;20570;-46
2023/08/24 10:49:55;;;;;;;15.65;13.88;;;21.60;99.90;;;;;;5053470;28;20049;-45
2023/08/24 10:52:33;;;;;;;18.00;13.95;;;21.50;99.90;;;;;;5052852;28;20378;-46
2023/08/24 10:55:02;;;;;;;15.02;13.27;;;21.50;99.90;;;;;;5035428;28;20149;-43
2023/08/24 10:57:37;;;;;;;15.95;14.23;;;21.50;99.90;;;;;;5046386;28;20131;-43
2023/08/24 11:00:05;;;;;;;19.02;15.70;;;21.40;99.90;;;;;;5038584;28;20052;-43
2023/08/24 11:02:41;;;;;;;21.73;16.08;;;21.30;99.90;;;;;;5041078;28;20111;-42
2023/08/24 11:05:21;;;;;;;19.70;16.67;;;21.20;99.90;;;;;;5033372;28;20132;-41
2023/08/24 11:08:01;;;;;;;20.17;14.60;;;21.20;99.90;;;;;;5033623;28;20045;-47
2023/08/24 11:10:46;;;;;;;19.00;17.00;;;21.20;99.90;;;;;;5033862;28;20067;-39
2023/08/24 11:13:12;;;;;;;18.70;16.83;;;21.20;99.90;;;;;;5032675;28;20139;-39
2023/08/24 11:15:57;;;;;;;17.20;15.35;;;21.30;99.90;;;;;;5038800;28;20129;-44
2023/08/24 11:18:27;;;;;;;16.65;14.38;;;21.40;99.90;;;;;;5035692;28;20128;-41
2023/08/24 11:20:59;;;;;;;20.48;17.02;;;21.50;99.90;;;;;;5038193;28;20127;-39
2023/08/24 11:23:26;;;;;;;19.88;16.35;;;21.50;99.90;;;;;;5034778;28;20495;-42
2023/08/24 11:25:57;;;;;;;21.45;17.48;;;21.50;99.90;;;;;;5036285;28;20516;-42
2023/08/24 11:28:28;;;;;;;18.00;15.82;;;21.60;99.90;;;;;;5040207;28;20048;-41
2023/08/24 11:30:54;;;;;;;18.23;15.43;;;21.60;99.90;;;;;;5052232;28;20052;-40
2023/08/24 11:33:34;;;;;;;24.98;18.98;;;21.70;99.90;;;;;;5066410;28;20052;-42
2023/08/24 11:36:02;;;;;;;17.05;15.25;;;21.70;99.90;;;;;;5065220;28;20048;-43
2023/08/24 11:38:42;;;;;;;17.20;15.48;;;21.80;99.90;;;;;;5062479;28;20667;-39
2023/08/24 11:41:16;;;;;;;18.27;16.60;;;21.90;99.90;;;;;;5069832;28;20105;-41
2023/08/24 11:43:47;;;;;;;16.48;14.70;;;21.90;99.90;;;;;;5052776;28;20048;-45
2023/08/24 11:46:15;;;;;;;22.17;19.45;;;22.00;99.90;;;;;;5063181;28;20048;-39
2023/08/24 11:48:41;;;;;;;18.83;16.85;;;22.00;99.90;;;;;;5055563;28;20048;-44
2023/08/24 11:51:12;;;;;;;19.27;17.55;;;22.00;99.90;;;;;;5052861;28;20052;-41
2023/08/24 11:53:43;;;;;;;20.42;17.63;;;22.00;99.90;;;;;;5049589;28;20084;-40
2023/08/24 11:56:10;;;;;;;17.88;16.20;;;22.00;99.90;;;;;;5064692;28;20187;-40
2023/08/24 11:58:47;;;;;;;21.98;19.58;;;22.00;99.90;;;;;;5071098;28;20083;-43
2023/08/24 12:01:13;;;;;;;22.35;19.17;;;22.00;99.90;;;;;;5059982;28;20044;-43
2023/08/24 12:03:39;;;;;;;23.45;20.58;;;22.10;99.90;;;;;;5075353;28;20520;-41
2023/08/24 12:06:16;;;;;;;18.67;16.80;;;22.10;99.90;;;;;;5074479;28;20050;-40
2023/08/24 12:08:46;;;;;;;22.50;18.80;;;22.20;99.90;;;;;;5063892;28;20509;-47
2023/08/24 12:11:17;;;;;;;25.90;18.63;;;22.20;99.90;;;;;;5076833;28;20101;-42
2023/08/24 12:13:48;;;;;;;20.90;18.60;;;22.20;99.90;;;;;;5076114;28;20046;-39
2023/08/24 12:16:15;;;;;;;23.00;20.40;;;22.30;99.90;;;;;;5055236;28;20084;-42
2023/08/24 12:18:57;;;;;;;20.52;18.27;;;22.30;99.90;;;;;;5049250;28;20056;-43
2023/08/24 12:21:23;;;;;;;24.60;20.15;;;22.40;99.90;;;;;;5047010;28;20399;-41
2023/08/24 12:24:00;;;;;;;21.13;19.13;;;22.30;99.90;;;;;;5064194;28;20045;-46
2023/08/24 12:26:27;;;;;;;22.05;19.83;;;22.30;99.90;;;;;;5052747;28;20052;-43
2023/08/24 12:28:53;;;;;;;23.73;21.67;;;22.40;99.90;;;;;;5057993;28;20063;-39
2023/08/24 12:31:20;;;;;;;22.05;19.73;;;22.40;99.90;;;;;;5065535;28;20058;-45
2023/08/24 12:33:56;;;;;;;25.58;22.00;;;22.30;99.90;;;;;;5053454;28;20041;-42
2023/08/24 12:36:22;;;;;;;23.85;21.73;;;22.30;99.90;;;;;;5055140;28;20110;-40
2023/08/24 12:38:48;;;;;;;23.55;21.27;;;22.30;99.90;;;;;;5074610;28;20444;-40